Time;durP1;ratioP1;P1;durP2;ratioP2;P2;SDS_P1;SDS_P2;PMS_P1;PMS_P2;Temp;Humidity;BMP_temperature;BMP_pressure;BME280_temperature;BME280_humidity;BME280_pressure;Samples;Min_cycle;Max_cycle;Signal;HPM_P1;HPM_P2
2024/01/07 00:00:17;;;;;;;13.07;11.87;;;6.70;1.00;;;;;;5035016;28;20453;-79
2024/01/07 00:02:45;;;;;;;13.47;12.00;;;6.70;99.90;;;;;;5037112;28;20514;-82
2024/01/07 00:05:15;;;;;;;12.90;11.70;;;6.70;1.00;;;;;;5037529;28;20452;-81
2024/01/07 00:07:43;;;;;;;13.40;12.00;;;6.70;99.90;;;;;;5035894;28;20444;-81
2024/01/07 00:10:12;;;;;;;14.30;11.97;;;6.70;1.00;;;;;;5033742;28;20455;-78
2024/01/07 00:12:40;;;;;;;14.37;12.20;;;6.70;1.00;;;;;;5036404;28;20533;-78
2024/01/07 00:15:09;;;;;;;14.30;12.83;;;6.70;99.90;;;;;;5034529;28;20473;-80
2024/01/07 00:17:39;;;;;;;14.00;12.40;;;6.70;99.90;;;;;;5038722;28;20442;-80
2024/01/07 00:20:10;;;;;;;12.20;10.93;;;6.70;99.90;;;;;;5035925;28;20475;-82
2024/01/07 00:22:40;;;;;;;15.00;12.60;;;6.70;99.90;;;;;;5039019;28;20480;-81
2024/01/07 00:25:08;;;;;;;12.90;11.60;;;6.70;99.90;;;;;;5040981;28;20453;-82
2024/01/07 00:27:37;;;;;;;11.60;10.60;;;6.70;99.90;;;;;;5038196;28;20489;-80
2024/01/07 00:30:06;;;;;;;12.43;11.33;;;6.70;99.90;;;;;;5039312;28;20436;-78
2024/01/07 00:32:35;;;;;;;12.83;11.53;;;6.70;99.90;;;;;;5052003;28;20480;-77
2024/01/07 00:35:03;;;;;;;11.43;10.33;;;6.70;99.90;;;;;;5040540;28;20476;-81
2024/01/07 00:37:34;;;;;;;14.33;11.20;;;6.70;99.90;;;;;;5034700;28;20519;-82
2024/01/07 00:40:05;;;;;;;11.37;10.27;;;6.70;99.90;;;;;;5038586;28;20471;-78
2024/01/07 00:42:33;;;;;;;13.33;11.93;;;6.70;99.90;;;;;;5035072;28;21446;-79
2024/01/07 00:45:02;;;;;;;11.37;10.27;;;6.70;99.90;;;;;;5028614;28;20491;-77
2024/01/07 00:47:31;;;;;;;12.53;11.23;;;6.70;99.90;;;;;;5042277;28;20495;-78
2024/01/07 00:49:59;;;;;;;13.33;12.00;;;6.70;99.90;;;;;;5035077;28;20869;-78
2024/01/07 00:52:27;;;;;;;14.77;12.27;;;6.70;99.90;;;;;;5034739;28;20500;-79
2024/01/07 00:54:56;;;;;;;11.93;10.73;;;6.70;1.00;;;;;;5033633;28;20515;-79
2024/01/07 00:57:26;;;;;;;14.30;10.80;;;6.70;99.90;;;;;;5037811;28;20445;-79
2024/01/07 00:59:54;;;;;;;12.80;11.40;;;6.70;99.90;;;;;;5023741;28;20457;-79
2024/01/07 01:02:22;;;;;;;13.10;11.63;;;6.70;99.90;;;;;;5037779;28;20474;-79
2024/01/07 01:04:51;;;;;;;11.80;10.80;;;6.70;1.00;;;;;;5040290;28;20448;-82
2024/01/07 01:07:19;;;;;;;13.00;11.70;;;6.70;1.00;;;;;;5048745;28;20461;-82
2024/01/07 01:09:47;;;;;;;12.23;10.77;;;6.70;1.00;;;;;;5040361;28;20526;-83
2024/01/07 01:12:16;;;;;;;12.43;11.10;;;6.70;1.00;;;;;;5040235;28;20483;-81
2024/01/07 01:14:46;;;;;;;12.20;11.10;;;6.80;99.90;;;;;;5054973;28;20447;-79
2024/01/07 01:17:14;;;;;;;15.20;12.03;;;6.80;1.00;;;;;;5044687;28;20451;-79
2024/01/07 01:19:42;;;;;;;12.00;10.73;;;6.80;1.00;;;;;;5043645;28;20514;-79
2024/01/07 01:22:11;;;;;;;13.70;11.80;;;6.70;1.00;;;;;;5039663;28;20478;-82
2024/01/07 01:24:39;;;;;;;13.07;11.77;;;6.70;1.00;;;;;;5042854;28;21231;-81
2024/01/07 01:27:07;;;;;;;12.73;11.50;;;6.60;99.90;;;;;;5041076;28;20460;-83
2024/01/07 01:29:36;;;;;;;14.83;11.47;;;6.70;99.90;;;;;;5035829;28;20479;-81
2024/01/07 01:32:06;;;;;;;14.80;11.40;;;6.70;99.90;;;;;;5041581;28;20475;-78
2024/01/07 01:34:34;;;;;;;12.43;11.07;;;6.60;99.90;;;;;;5037571;28;20445;-79
2024/01/07 01:37:03;;;;;;;12.87;11.20;;;6.60;99.90;;;;;;5040861;28;20475;-81
2024/01/07 01:39:31;;;;;;;14.63;12.03;;;6.60;1.00;;;;;;5038116;28;20551;-80
2024/01/07 01:41:59;;;;;;;15.03;11.60;;;6.60;34.90;;;;;;5038558;28;20471;-78
2024/01/07 01:44:28;;;;;;;14.40;12.10;;;6.60;99.90;;;;;;5038169;28;21023;-80
2024/01/07 01:46:57;;;;;;;15.03;12.40;;;6.60;1.00;;;;;;5030419;28;20450;-83
2024/01/07 01:49:27;;;;;;;16.63;12.90;;;6.60;82.40;;;;;;5040796;28;20449;-79
2024/01/07 01:51:56;;;;;;;14.30;11.10;;;6.50;99.90;;;;;;5041645;28;20476;-77
2024/01/07 01:54:25;;;;;;;19.10;14.07;;;6.50;1.00;;;;;;5036884;28;20444;-83
2024/01/07 01:56:53;;;;;;;12.93;11.30;;;6.60;99.90;;;;;;5051811;28;20489;-79
2024/01/07 01:59:22;;;;;;;16.93;11.80;;;6.60;99.90;;;;;;5031891;28;20540;-78
2024/01/07 02:01:51;;;;;;;16.13;12.90;;;6.60;32.90;;;;;;5035926;28;20571;-79
2024/01/07 02:04:19;;;;;;;18.37;13.43;;;6.60;1.00;;;;;;5034236;28;20456;-80
2024/01/07 02:06:49;;;;;;;15.37;12.07;;;6.60;1.00;;;;;;5036583;28;20474;-79
2024/01/07 02:09:17;;;;;;;20.40;13.07;;;6.60;1.00;;;;;;5033562;28;20821;-78
2024/01/07 02:12:01;;;;;;;15.70;11.97;;;6.50;1.00;;;;;;5036485;28;20566;-79
2024/01/07 02:14:29;;;;;;;17.77;13.30;;;6.50;99.90;;;;;;5022781;28;21004;-79
2024/01/07 02:16:58;;;;;;;16.70;13.33;;;6.50;99.90;;;;;;5038591;28;20491;-77
2024/01/07 02:19:26;;;;;;;16.70;13.30;;;6.50;1.00;;;;;;5036531;28;20865;-79
2024/01/07 02:21:56;;;;;;;18.30;12.17;;;6.50;29.30;;;;;;5035600;28;20488;-80
2024/01/07 02:24:26;;;;;;;20.30;13.70;;;6.50;99.90;;;;;;5038001;28;20456;-80
2024/01/07 02:26:54;;;;;;;17.20;12.63;;;6.50;99.90;;;;;;5037908;28;20471;-80
2024/01/07 02:29:22;;;;;;;14.95;12.18;;;6.50;1.00;;;;;;5050323;28;20463;-80
2024/01/07 02:31:50;;;;;;;16.30;11.90;;;6.50;1.00;;;;;;5036769;28;20309;-80
2024/01/07 02:34:19;;;;;;;15.33;13.80;;;6.50;99.90;;;;;;5035684;28;20460;-79
2024/01/07 02:36:47;;;;;;;14.60;13.00;;;6.50;99.90;;;;;;5038506;28;20529;-82
2024/01/07 02:39:17;;;;;;;19.53;12.83;;;6.50;1.00;;;;;;5037236;28;20480;-81
2024/01/07 02:41:47;;;;;;;17.53;13.17;;;6.50;1.00;;;;;;5027260;28;20487;-79
2024/01/07 02:44:15;;;;;;;14.20;12.03;;;6.50;18.80;;;;;;5015940;28;20449;-80
2024/01/07 02:46:46;;;;;;;15.60;11.80;;;6.50;99.90;;;;;;5028002;28;20457;-79
2024/01/07 02:49:14;;;;;;;15.63;12.27;;;6.50;99.90;;;;;;5038223;28;20560;-81
2024/01/07 02:51:45;;;;;;;15.10;12.70;;;6.50;99.90;;;;;;5031231;28;20860;-78
2024/01/07 02:54:13;;;;;;;14.93;13.37;;;6.40;58.70;;;;;;5032210;28;20674;-76
2024/01/07 02:56:41;;;;;;;14.73;12.03;;;6.40;99.90;;;;;;5028619;28;20491;-81
2024/01/07 02:59:11;;;;;;;13.93;12.30;;;6.40;99.90;;;;;;5031188;28;20453;-79
2024/01/07 03:01:41;;;;;;;15.07;13.47;;;6.40;99.90;;;;;;5024908;28;20504;-78
2024/01/07 03:04:11;;;;;;;18.20;13.70;;;6.50;1.00;;;;;;5036516;28;20475;-79
2024/01/07 03:06:40;;;;;;;15.00;12.70;;;6.40;99.90;;;;;;5032897;28;20468;-80
2024/01/07 03:09:10;;;;;;;14.10;12.63;;;6.50;1.00;;;;;;5027829;28;20456;-78
2024/01/07 03:11:41;;;;;;;16.47;14.67;;;6.40;1.00;;;;;;5025511;28;20492;-80
2024/01/07 03:14:11;;;;;;;17.00;12.40;;;6.40;1.00;;;;;;5022175;28;20557;-80
2024/01/07 03:16:39;;;;;;;15.43;13.77;;;6.40;99.90;;;;;;5027688;28;20507;-81
2024/01/07 03:19:08;;;;;;;13.93;12.07;;;6.40;35.90;;;;;;5025801;28;20480;-79
2024/01/07 03:21:37;;;;;;;17.53;13.83;;;6.40;99.90;;;;;;5028158;28;21006;-80
2024/01/07 03:24:06;;;;;;;15.43;13.60;;;6.50;1.00;;;;;;5030463;28;20459;-80
2024/01/07 03:26:34;;;;;;;15.03;13.20;;;6.50;1.00;;;;;;5030524;28;20471;-81
2024/01/07 03:29:03;;;;;;;15.23;13.50;;;6.50;1.00;;;;;;5024502;28;20559;-79
2024/01/07 03:31:32;;;;;;;15.60;12.97;;;6.50;99.90;;;;;;5023842;28;20527;-79
2024/01/07 03:34:01;;;;;;;15.03;12.60;;;6.50;99.90;;;;;;5024439;28;20464;-79
2024/01/07 03:36:29;;;;;;;15.03;12.70;;;6.50;99.90;;;;;;5030126;28;20499;-82
2024/01/07 03:38:57;;;;;;;17.60;14.13;;;6.50;99.90;;;;;;5027203;28;20457;-80
2024/01/07 03:41:26;;;;;;;15.30;13.70;;;6.40;99.90;;;;;;5024756;28;20539;-79
2024/01/07 03:43:54;;;;;;;13.73;12.33;;;6.40;1.00;;;;;;5024094;28;20491;-80
2024/01/07 03:46:22;;;;;;;15.80;12.63;;;6.40;99.90;;;;;;5027126;28;20464;-80
2024/01/07 03:48:52;;;;;;;12.93;11.60;;;6.40;25.10;;;;;;5025053;28;20453;-81
2024/01/07 03:51:20;;;;;;;13.90;12.50;;;6.40;99.90;;;;;;5037879;28;20480;-80
2024/01/07 03:53:49;;;;;;;13.93;12.47;;;6.40;99.90;;;;;;5037331;28;20499;-81
2024/01/07 03:56:17;;;;;;;13.90;12.50;;;6.50;99.90;;;;;;5035494;28;20499;-81
2024/01/07 03:58:45;;;;;;;14.40;12.30;;;6.50;99.90;;;;;;5033711;28;20475;-80
2024/01/07 04:01:17;;;;;;;14.63;12.17;;;6.50;1.00;;;;;;5025202;28;20483;-78
2024/01/07 04:03:46;;;;;;;13.93;12.63;;;6.40;99.90;;;;;;5024731;28;20687;-77
2024/01/07 04:06:16;;;;;;;14.77;13.13;;;6.50;1.00;;;;;;5023711;28;20542;-79
2024/01/07 04:08:44;;;;;;;14.73;12.73;;;6.50;1.00;;;;;;5022205;28;20464;-77
2024/01/07 04:11:13;;;;;;;14.67;13.17;;;6.50;99.90;;;;;;5027824;28;20498;-77
2024/01/07 04:13:41;;;;;;;14.50;13.00;;;6.50;99.90;;;;;;5021835;28;20453;-75
2024/01/07 04:16:17;;;;;;;14.33;12.90;;;6.40;1.00;;;;;;5028119;28;20471;-75
2024/01/07 04:18:46;;;;;;;13.10;11.77;;;6.40;99.90;;;;;;5023457;28;20969;-77
2024/01/07 04:21:21;;;;;;;14.20;11.43;;;6.40;1.00;;;;;;5023481;28;20482;-76
2024/01/07 04:23:50;;;;;;;12.67;11.47;;;6.40;1.00;;;;;;5027678;28;21426;-75
2024/01/07 04:26:18;;;;;;;14.13;11.87;;;6.40;99.90;;;;;;5023065;28;20452;-78
2024/01/07 04:28:46;;;;;;;17.03;13.43;;;6.40;99.90;;;;;;5029869;28;20451;-76
2024/01/07 04:31:15;;;;;;;14.20;12.27;;;6.30;99.90;;;;;;5032254;28;20546;-76
2024/01/07 04:33:43;;;;;;;12.73;11.47;;;6.40;1.00;;;;;;5032277;28;20463;-78
2024/01/07 04:36:12;;;;;;;12.53;11.43;;;6.40;1.00;;;;;;5020637;28;20460;-77
2024/01/07 04:38:41;;;;;;;16.23;12.97;;;6.40;2.80;;;;;;5028461;28;20546;-79
2024/01/07 04:41:10;;;;;;;14.40;13.00;;;6.40;1.00;;;;;;5023314;28;20472;-75
2024/01/07 04:43:38;;;;;;;14.30;12.77;;;6.30;1.00;;;;;;5026983;28;20979;-77
2024/01/07 04:46:06;;;;;;;13.93;12.00;;;6.30;1.00;;;;;;5032521;28;20495;-74
2024/01/07 04:48:35;;;;;;;13.83;12.30;;;6.30;35.10;;;;;;5027277;28;20452;-76
2024/01/07 04:51:03;;;;;;;12.77;11.53;;;6.30;1.00;;;;;;5027097;28;20471;-75
2024/01/07 04:53:32;;;;;;;12.83;11.67;;;6.30;1.00;;;;;;5032867;28;20550;-76
2024/01/07 04:56:02;;;;;;;13.87;12.37;;;6.30;1.00;;;;;;5033597;28;21071;-78
2024/01/07 04:58:30;;;;;;;12.93;11.70;;;6.30;99.90;;;;;;5024271;28;20491;-79
2024/01/07 05:00:59;;;;;;;12.63;11.37;;;6.30;99.90;;;;;;5027204;28;20479;-80
2024/01/07 05:03:29;;;;;;;11.20;10.33;;;6.30;1.00;;;;;;5028262;28;20449;-80
2024/01/07 05:05:58;;;;;;;12.30;11.10;;;6.30;99.90;;;;;;5023679;28;20496;-78
2024/01/07 05:08:28;;;;;;;12.17;11.07;;;6.30;1.00;;;;;;5032982;28;20487;-79
2024/01/07 05:10:56;;;;;;;12.20;11.00;;;6.30;99.90;;;;;;5030645;28;20476;-79
2024/01/07 05:13:26;;;;;;;13.07;11.67;;;6.30;99.90;;;;;;5030704;28;20460;-79
2024/01/07 05:15:54;;;;;;;12.50;11.33;;;6.30;99.90;;;;;;5035036;28;20494;-80
2024/01/07 05:18:23;;;;;;;12.93;11.73;;;6.30;99.90;;;;;;5036280;28;20959;-80
2024/01/07 05:20:53;;;;;;;12.77;10.87;;;6.30;99.90;;;;;;5032359;28;20570;-78
2024/01/07 05:23:21;;;;;;;10.93;9.30;;;6.30;99.90;;;;;;5036169;28;20488;-76
2024/01/07 05:25:49;;;;;;;13.67;11.30;;;6.20;99.90;;;;;;5031628;28;20469;-80
2024/01/07 05:28:19;;;;;;;11.73;10.73;;;6.30;99.90;;;;;;5031759;28;20454;-77
2024/01/07 05:30:50;;;;;;;11.20;10.20;;;6.20;99.90;;;;;;5033078;28;20476;-77
2024/01/07 05:33:18;;;;;;;11.03;9.90;;;6.20;99.90;;;;;;5035989;28;21052;-78
2024/01/07 05:35:47;;;;;;;10.93;10.03;;;6.20;1.00;;;;;;5036299;28;20957;-80
2024/01/07 05:38:15;;;;;;;11.83;10.67;;;6.20;1.00;;;;;;5036704;28;20487;-80
2024/01/07 05:40:43;;;;;;;11.70;10.60;;;6.20;99.90;;;;;;5036395;28;20464;-77
2024/01/07 05:43:12;;;;;;;10.57;9.50;;;6.20;99.90;;;;;;5034709;28;20502;-76
2024/01/07 05:45:40;;;;;;;10.93;9.90;;;6.20;1.00;;;;;;5034202;28;20523;-80
2024/01/07 05:48:10;;;;;;;9.53;8.77;;;6.30;1.00;;;;;;5031732;28;20974;-77
2024/01/07 05:50:38;;;;;;;8.73;8.03;;;6.30;99.90;;;;;;5037101;28;20500;-79
2024/01/07 05:53:06;;;;;;;10.00;9.20;;;6.20;99.90;;;;;;5038604;28;20448;-79
2024/01/07 05:55:35;;;;;;;9.70;8.73;;;6.20;99.90;;;;;;5038393;28;20467;-78
2024/01/07 05:58:03;;;;;;;10.27;9.33;;;6.20;99.90;;;;;;5036386;28;20480;-77
2024/01/07 06:00:31;;;;;;;9.47;8.80;;;6.20;99.90;;;;;;5034501;28;20587;-76
2024/01/07 06:03:00;;;;;;;10.30;9.47;;;6.20;99.90;;;;;;5037586;28;20546;-79
2024/01/07 06:05:31;;;;;;;9.93;9.17;;;6.20;99.90;;;;;;5035529;28;20467;-77
2024/01/07 06:07:59;;;;;;;10.87;9.87;;;6.20;99.90;;;;;;5036669;28;20993;-79
2024/01/07 06:10:28;;;;;;;9.50;8.73;;;6.20;99.90;;;;;;5031150;28;20465;-78
2024/01/07 06:12:56;;;;;;;10.33;9.63;;;6.20;1.00;;;;;;5028620;28;20507;-78
2024/01/07 06:15:24;;;;;;;10.53;9.73;;;6.20;99.90;;;;;;5038697;28;20470;-78
2024/01/07 06:17:53;;;;;;;10.20;9.43;;;6.30;99.90;;;;;;5032490;28;20473;-78
2024/01/07 06:20:22;;;;;;;12.03;9.67;;;6.20;99.90;;;;;;5029774;28;20488;-79
2024/01/07 06:22:52;;;;;;;10.60;9.80;;;6.20;99.90;;;;;;5038004;28;20496;-77
2024/01/07 06:25:20;;;;;;;10.70;9.80;;;6.10;99.90;;;;;;5039166;28;20981;-80
2024/01/07 06:27:48;;;;;;;11.40;10.50;;;6.10;1.00;;;;;;5030699;28;20461;-79
2024/01/07 06:30:19;;;;;;;23.50;14.67;;;6.10;99.90;;;;;;5032686;28;20471;-78
2024/01/07 06:32:48;;;;;;;10.80;10.00;;;6.20;99.90;;;;;;5031295;28;21502;-81
2024/01/07 06:35:16;;;;;;;10.00;9.20;;;6.20;99.90;;;;;;5032484;28;20459;-80
2024/01/07 06:37:45;;;;;;;12.40;11.27;;;6.10;33.00;;;;;;5031750;28;20490;-78
2024/01/07 06:40:15;;;;;;;11.53;10.43;;;6.10;12.30;;;;;;5034961;28;20445;-79
2024/01/07 06:42:43;;;;;;;11.23;10.13;;;6.10;99.90;;;;;;5039022;28;20483;-78
2024/01/07 06:45:12;;;;;;;10.27;9.47;;;6.10;99.90;;;;;;5034061;28;20450;-76
2024/01/07 06:47:40;;;;;;;10.63;9.73;;;6.10;1.00;;;;;;5031491;28;20536;-79
2024/01/07 06:50:10;;;;;;;11.83;10.93;;;6.20;99.90;;;;;;5028910;28;20453;-79
2024/01/07 06:52:38;;;;;;;12.80;11.80;;;6.10;99.90;;;;;;5028638;28;20522;-79
2024/01/07 06:55:08;;;;;;;12.30;11.03;;;6.10;99.90;;;;;;5030351;28;20453;-77
2024/01/07 06:57:37;;;;;;;11.70;10.70;;;6.10;99.90;;;;;;5036804;28;20456;-78
2024/01/07 07:00:07;;;;;;;11.70;10.60;;;6.10;99.90;;;;;;5037258;28;20448;-82
2024/01/07 07:02:36;;;;;;;11.20;10.20;;;6.10;99.90;;;;;;5033623;28;20480;-79
2024/01/07 07:05:04;;;;;;;10.13;9.37;;;6.20;99.90;;;;;;5036961;28;20445;-83
2024/01/07 07:07:33;;;;;;;11.80;10.10;;;6.10;6.00;;;;;;5032320;28;20483;-79
2024/01/07 07:10:02;;;;;;;11.27;10.10;;;6.10;99.90;;;;;;5035032;28;20974;-81
2024/01/07 07:12:30;;;;;;;11.55;10.48;;;6.10;1.00;;;;;;5031984;28;20489;-80
2024/01/07 07:15:00;;;;;;;12.27;11.20;;;6.10;66.30;;;;;;5033203;28;20182;-80
2024/01/07 07:17:28;;;;;;;11.77;10.67;;;6.10;1.00;;;;;;5036934;28;20953;-81
2024/01/07 07:19:57;;;;;;;10.23;9.43;;;6.10;1.00;;;;;;5025411;28;20555;-77
2024/01/07 07:22:25;;;;;;;10.20;9.50;;;6.00;1.00;;;;;;5031147;28;20465;-79
2024/01/07 07:24:54;;;;;;;11.35;10.45;;;6.00;1.00;;;;;;5035000;28;21240;-78
2024/01/07 07:27:26;;;;;;;10.90;9.87;;;5.90;1.00;;;;;;5032225;28;20205;-78
2024/01/07 07:29:54;;;;;;;11.03;10.03;;;6.00;1.00;;;;;;5033844;28;20452;-81
2024/01/07 07:32:24;;;;;;;11.07;10.10;;;6.00;1.00;;;;;;5034351;28;20477;-80
2024/01/07 07:34:53;;;;;;;10.33;9.40;;;6.00;1.00;;;;;;5017129;28;20469;-80
2024/01/07 07:37:21;;;;;;;11.57;10.40;;;6.10;1.00;;;;;;5053748;28;20452;-77
2024/01/07 07:39:50;;;;;;;11.13;10.33;;;6.00;1.00;;;;;;5047323;28;20542;-77
2024/01/07 07:42:18;;;;;;;10.23;9.33;;;6.00;1.00;;;;;;5055165;28;20468;-81
2024/01/07 07:44:47;;;;;;;10.33;9.43;;;6.10;99.90;;;;;;5049528;28;20457;-80
2024/01/07 07:47:16;;;;;;;10.17;9.40;;;6.00;99.90;;;;;;5051538;28;20490;-81
2024/01/07 07:49:45;;;;;;;9.63;8.83;;;6.00;99.90;;;;;;5050808;28;20920;-78
2024/01/07 07:52:14;;;;;;;10.80;9.80;;;5.90;99.90;;;;;;5055515;28;21218;-77
2024/01/07 07:54:43;;;;;;;10.17;9.37;;;6.00;99.90;;;;;;5053949;28;20474;-81
2024/01/07 07:57:11;;;;;;;9.57;8.67;;;6.00;99.90;;;;;;5055196;28;21007;-76
2024/01/07 07:59:39;;;;;;;11.40;10.40;;;6.10;51.10;;;;;;5048406;28;20451;-79
2024/01/07 08:02:08;;;;;;;10.00;8.83;;;6.00;7.90;;;;;;5053027;28;20311;-77
2024/01/07 08:04:37;;;;;;;9.63;8.73;;;6.00;1.00;;;;;;5052033;28;21160;-76
2024/01/07 08:07:06;;;;;;;8.60;8.00;;;6.10;1.00;;;;;;5047532;28;20962;-79
2024/01/07 08:09:36;;;;;;;9.60;8.80;;;6.00;1.00;;;;;;5052786;28;20441;-79
2024/01/07 08:12:06;;;;;;;9.27;8.40;;;6.00;1.00;;;;;;5051314;28;20480;-76
2024/01/07 08:14:35;;;;;;;9.27;8.50;;;6.00;1.00;;;;;;5052857;28;20493;-78
2024/01/07 08:17:04;;;;;;;8.93;8.10;;;6.00;1.00;;;;;;5047871;28;20542;-77
2024/01/07 08:19:33;;;;;;;8.80;8.10;;;5.90;1.00;;;;;;5044604;28;20491;-79
2024/01/07 08:22:01;;;;;;;9.60;8.80;;;5.90;1.00;;;;;;5049939;28;20479;-78
2024/01/07 08:24:31;;;;;;;8.80;7.90;;;5.90;1.00;;;;;;5048991;28;20546;-78
2024/01/07 08:26:59;;;;;;;11.00;10.07;;;5.90;1.00;;;;;;5050371;28;20542;-78
2024/01/07 08:29:27;;;;;;;9.17;8.27;;;5.90;1.00;;;;;;5053609;28;20846;-75
2024/01/07 08:31:56;;;;;;;8.20;7.60;;;5.90;1.00;;;;;;5049651;28;20536;-79
2024/01/07 08:34:24;;;;;;;8.23;7.63;;;5.90;1.00;;;;;;5050126;28;20502;-79
2024/01/07 08:36:53;;;;;;;7.23;6.53;;;5.90;1.00;;;;;;5048911;28;20542;-77
2024/01/07 08:39:22;;;;;;;8.80;7.97;;;5.90;1.00;;;;;;5053080;28;20456;-79
2024/01/07 08:41:52;;;;;;;8.80;8.00;;;5.90;1.00;;;;;;5050751;28;21039;-79
2024/01/07 08:44:20;;;;;;;8.20;7.50;;;5.90;1.00;;;;;;5053055;28;20968;-79
2024/01/07 08:46:48;;;;;;;8.80;8.00;;;5.90;1.00;;;;;;5036654;28;20508;-78
2024/01/07 08:49:17;;;;;;;10.07;9.13;;;5.80;1.00;;;;;;5047808;28;20553;-79
2024/01/07 08:51:45;;;;;;;8.20;7.60;;;5.90;1.00;;;;;;5045725;28;20494;-77
2024/01/07 08:54:13;;;;;;;8.30;7.50;;;5.90;1.00;;;;;;5048763;28;20479;-78
2024/01/07 08:56:42;;;;;;;7.80;7.23;;;5.80;99.90;;;;;;5051037;28;21002;-78
2024/01/07 08:59:11;;;;;;;8.70;8.00;;;5.90;99.90;;;;;;5050456;28;20468;-77
2024/01/07 09:01:39;;;;;;;8.57;7.67;;;5.80;99.90;;;;;;5052272;28;20560;-76
2024/01/07 09:04:07;;;;;;;9.93;7.80;;;5.80;99.90;;;;;;5051065;28;20478;-77
2024/01/07 09:06:36;;;;;;;8.33;7.47;;;5.80;99.90;;;;;;5050620;28;20475;-79
2024/01/07 09:09:06;;;;;;;9.27;8.30;;;5.80;99.90;;;;;;5046219;28;20480;-78
2024/01/07 09:11:35;;;;;;;9.80;8.90;;;5.80;99.90;;;;;;5045121;28;20443;-77
2024/01/07 09:14:04;;;;;;;9.03;8.23;;;5.80;1.00;;;;;;5044888;28;20279;-76
2024/01/07 09:16:33;;;;;;;7.83;7.13;;;5.80;99.90;;;;;;5048288;28;20824;-76
2024/01/07 09:19:04;;;;;;;7.90;7.27;;;5.80;99.90;;;;;;5044841;28;20454;-75
2024/01/07 09:21:33;;;;;;;7.53;7.03;;;5.80;99.90;;;;;;5046361;28;20470;-77
2024/01/07 09:24:02;;;;;;;7.73;7.03;;;5.80;99.90;;;;;;5054638;28;20444;-77
2024/01/07 09:26:30;;;;;;;7.93;6.90;;;5.80;99.90;;;;;;5053075;28;20491;-78
2024/01/07 09:28:58;;;;;;;7.67;6.97;;;5.80;99.90;;;;;;5048266;28;20452;-76
2024/01/07 09:31:27;;;;;;;6.83;6.13;;;5.80;99.90;;;;;;5053104;28;21072;-79
2024/01/07 09:33:56;;;;;;;6.10;5.70;;;5.80;99.90;;;;;;5048152;28;20475;-78
2024/01/07 09:36:25;;;;;;;7.90;7.10;;;5.70;99.90;;;;;;5055141;28;20517;-79
2024/01/07 09:38:58;;;;;;;6.43;5.83;;;5.70;99.90;;;;;;5049901;28;20809;-77
2024/01/07 09:41:26;;;;;;;6.77;6.13;;;5.70;99.90;;;;;;5052098;28;20529;-78
2024/01/07 09:43:57;;;;;;;6.20;5.80;;;5.70;99.90;;;;;;5055081;28;20459;-77
2024/01/07 09:46:25;;;;;;;6.13;5.63;;;5.70;99.90;;;;;;5055013;28;20957;-77
2024/01/07 09:48:54;;;;;;;6.40;5.87;;;5.70;99.90;;;;;;5055662;28;20867;-77
2024/01/07 09:51:24;;;;;;;6.50;5.90;;;5.80;99.90;;;;;;5053712;28;20455;-79
2024/01/07 09:53:59;;;;;;;6.70;6.20;;;5.80;99.90;;;;;;5055039;28;20478;-78
2024/01/07 09:56:34;;;;;;;7.47;6.87;;;5.80;99.90;;;;;;5050950;28;20451;-77
2024/01/07 09:59:02;;;;;;;6.40;5.90;;;5.90;99.90;;;;;;5050560;28;20981;-79
2024/01/07 10:01:32;;;;;;;6.60;6.10;;;5.90;99.90;;;;;;5049057;28;20570;-77
2024/01/07 10:04:00;;;;;;;6.63;6.00;;;5.90;99.90;;;;;;5041481;28;20964;-78
2024/01/07 10:06:30;;;;;;;7.30;6.70;;;5.90;99.90;;;;;;5053024;28;20461;-79
2024/01/07 10:09:00;;;;;;;7.30;6.70;;;5.90;99.90;;;;;;5056243;28;20441;-78
2024/01/07 10:11:28;;;;;;;7.67;7.07;;;5.90;99.90;;;;;;5049754;28;21009;-76
2024/01/07 10:13:56;;;;;;;6.37;5.77;;;5.90;99.90;;;;;;5051764;28;20459;-77
2024/01/07 10:16:25;;;;;;;6.60;6.10;;;5.80;95.00;;;;;;5054264;28;20462;-79
2024/01/07 10:18:53;;;;;;;7.70;7.10;;;5.90;99.90;;;;;;5056223;28;20448;-75
2024/01/07 10:21:21;;;;;;;7.90;7.17;;;5.80;33.70;;;;;;5057209;28;20487;-77
2024/01/07 10:23:51;;;;;;;7.20;6.50;;;5.80;39.50;;;;;;5049092;28;20551;-79
2024/01/07 10:26:20;;;;;;;6.50;6.00;;;5.80;29.70;;;;;;5050897;28;20526;-77
2024/01/07 10:28:57;;;;;;;6.57;6.00;;;5.80;25.20;;;;;;5049940;28;20483;-78
2024/01/07 10:31:27;;;;;;;6.30;5.90;;;5.70;14.80;;;;;;5049866;28;20468;-80
2024/01/07 10:33:57;;;;;;;20.52;11.57;;;5.70;38.70;;;;;;5053201;28;20453;-77
2024/01/07 10:36:25;;;;;;;7.60;7.00;;;5.70;17.40;;;;;;5055147;28;20204;-80
2024/01/07 10:38:56;;;;;;;6.50;5.90;;;5.60;1.00;;;;;;5048883;28;20480;-76
2024/01/07 10:41:26;;;;;;;6.43;5.93;;;5.60;6.80;;;;;;5050294;28;20777;-76
2024/01/07 10:43:54;;;;;;;6.20;5.70;;;5.60;61.70;;;;;;5057310;28;20451;-79
2024/01/07 10:46:26;;;;;;;6.90;6.40;;;5.60;99.90;;;;;;5055218;28;20486;-77
2024/01/07 10:48:59;;;;;;;6.33;5.83;;;5.60;99.90;;;;;;5053224;28;20490;-77
2024/01/07 10:51:30;;;;;;;7.00;6.30;;;5.60;99.90;;;;;;5053745;28;20463;-79
2024/01/07 10:54:00;;;;;;;7.05;6.30;;;5.60;51.00;;;;;;5051976;28;20468;-77
2024/01/07 10:56:38;;;;;;;6.13;5.63;;;5.60;15.30;;;;;;5052351;28;20218;-76
2024/01/07 10:59:06;;;;;;;5.68;5.28;;;5.60;1.00;;;;;;5048448;28;20491;-79
2024/01/07 11:01:35;;;;;;;5.93;5.50;;;5.50;1.00;;;;;;5048900;28;20225;-78
2024/01/07 11:04:15;;;;;;;5.28;4.82;;;5.50;1.00;;;;;;5057478;28;20443;-78
2024/01/07 11:06:52;;;;;;;5.87;5.40;;;5.50;1.00;;;;;;5046104;28;20923;-79
2024/01/07 11:09:29;;;;;;;5.87;5.43;;;5.50;1.00;;;;;;5049379;28;20534;-76
2024/01/07 11:11:58;;;;;;;6.05;5.55;;;5.50;1.00;;;;;;5050189;28;20459;-76
2024/01/07 11:14:37;;;;;;;5.43;5.03;;;5.50;1.00;;;;;;5053731;28;20211;-78
2024/01/07 11:17:06;;;;;;;6.03;5.40;;;5.50;1.00;;;;;;5049850;28;20472;-75
2024/01/07 11:19:35;;;;;;;5.35;4.95;;;5.40;1.00;;;;;;5051542;28;20539;-77
2024/01/07 11:22:27;;;;;;;6.60;6.10;;;5.40;1.00;;;;;;5051479;28;20228;-76
2024/01/07 11:24:58;;;;;;;5.77;5.27;;;5.30;1.00;;;;;;5050250;28;20505;-78
2024/01/07 11:27:31;;;;;;;5.78;5.28;;;5.40;1.00;;;;;;5053600;28;20452;-78
2024/01/07 11:30:05;;;;;;;5.23;4.87;;;5.40;1.00;;;;;;5054296;28;20287;-77
2024/01/07 11:32:35;;;;;;;5.50;5.10;;;5.30;1.00;;;;;;5045100;28;20563;-79
2024/01/07 11:35:04;;;;;;;4.43;4.03;;;5.30;1.00;;;;;;5055692;28;20457;-77
2024/01/07 11:37:33;;;;;;;5.07;4.57;;;5.30;1.00;;;;;;5052669;28;21177;-79
2024/01/07 11:40:08;;;;;;;5.97;5.10;;;5.20;1.00;;;;;;5054125;28;20460;-77
2024/01/07 11:42:37;;;;;;;5.30;4.90;;;5.30;1.00;;;;;;5055012;28;20706;-79
2024/01/07 11:45:07;;;;;;;6.22;5.68;;;5.30;1.00;;;;;;5053833;28;20206;-79
2024/01/07 11:47:35;;;;;;;7.00;6.18;;;5.30;1.00;;;;;;5052708;28;20221;-76
2024/01/07 11:50:04;;;;;;;5.43;5.03;;;5.30;1.00;;;;;;5050389;28;20284;-78
2024/01/07 11:52:36;;;;;;;5.83;5.33;;;5.30;1.00;;;;;;5053524;28;20600;-79
2024/01/07 11:55:07;;;;;;;5.70;5.30;;;5.30;1.00;;;;;;5053791;28;20443;-80
2024/01/07 11:57:36;;;;;;;5.40;5.00;;;5.30;1.00;;;;;;5053617;28;20451;-80
2024/01/07 12:00:05;;;;;;;6.25;5.72;;;5.30;1.00;;;;;;5053693;28;20976;-81
2024/01/07 12:02:34;;;;;;;6.53;6.03;;;5.30;1.00;;;;;;5052500;28;20225;-81
2024/01/07 12:05:02;;;;;;;6.95;6.35;;;5.30;1.00;;;;;;5048722;28;20477;-78
2024/01/07 12:07:31;;;;;;;6.75;6.18;;;5.30;1.00;;;;;;5051131;28;20654;-78
2024/01/07 12:09:59;;;;;;;8.02;6.78;;;5.30;1.00;;;;;;5054528;28;20994;-77
2024/01/07 12:12:30;;;;;;;6.10;5.65;;;5.30;1.00;;;;;;5053780;28;20312;-78
2024/01/07 12:14:58;;;;;;;6.20;5.75;;;5.30;1.00;;;;;;5051616;28;20212;-78
2024/01/07 12:17:27;;;;;;;6.05;5.55;;;5.20;1.00;;;;;;5054102;28;20228;-79
2024/01/07 12:19:58;;;;;;;5.88;5.43;;;5.20;1.00;;;;;;5053228;28;20201;-81
2024/01/07 12:22:28;;;;;;;5.63;5.15;;;5.20;1.00;;;;;;5052027;28;20213;-77
2024/01/07 12:25:02;;;;;;;5.40;5.00;;;5.20;1.00;;;;;;5051726;28;20243;-79
2024/01/07 12:27:32;;;;;;;5.75;5.20;;;5.20;1.00;;;;;;5047258;28;20220;-78
2024/01/07 12:30:00;;;;;;;5.18;4.78;;;5.30;1.00;;;;;;5049020;28;20297;-77
2024/01/07 12:32:29;;;;;;;5.40;4.95;;;5.20;1.00;;;;;;5043621;28;20209;-78
2024/01/07 12:34:59;;;;;;;5.82;5.43;;;5.20;1.00;;;;;;5051173;28;20228;-80
2024/01/07 12:37:28;;;;;;;6.20;5.72;;;5.20;1.00;;;;;;5052038;28;20758;-80
2024/01/07 12:39:56;;;;;;;5.35;4.95;;;5.10;1.00;;;;;;5050926;28;20197;-80
2024/01/07 12:42:24;;;;;;;6.30;5.55;;;5.10;1.00;;;;;;5048379;28;20224;-80
2024/01/07 12:44:54;;;;;;;5.97;5.47;;;5.10;1.00;;;;;;5053115;28;20723;-81
2024/01/07 12:47:23;;;;;;;6.15;5.60;;;5.20;1.00;;;;;;5042784;28;20451;-79
2024/01/07 12:49:51;;;;;;;6.53;6.00;;;5.20;1.00;;;;;;5050787;28;20301;-78
2024/01/07 12:52:20;;;;;;;7.10;6.40;;;5.10;1.00;;;;;;5048249;28;20646;-80
2024/01/07 12:54:48;;;;;;;6.93;6.25;;;5.10;1.00;;;;;;5033357;28;20448;-78
2024/01/07 12:57:16;;;;;;;9.60;7.03;;;5.10;1.00;;;;;;5050609;28;20190;-79
2024/01/07 12:59:48;;;;;;;6.53;6.00;;;5.10;1.00;;;;;;5057881;28;20446;-77